Time;durP1;ratioP1;P1;durP2;ratioP2;P2;SDS_P1;SDS_P2;PMS_P1;PMS_P2;Temp;Humidity;BMP_temperature;BMP_pressure;BME280_temperature;BME280_humidity;BME280_pressure;Samples;Min_cycle;Max_cycle;Signal;HPM_P1;HPM_P2
2022/05/18 00:00:15;;;;;;;;;;;;;;;18.61;60.21;100031.91;4334278;33;21403;-86
2022/05/18 00:02:41;;;;;;;;;;;;;;;18.72;60.20;100038.34;4334714;33;19987;-86
2022/05/18 00:05:06;;;;;;;;;;;;;;;18.66;60.20;100037.75;4348275;33;20030;-87
2022/05/18 00:07:31;;;;;;;;;;;;;;;18.79;60.21;100040.50;4334741;33;20387;-87
2022/05/18 00:09:57;;;;;;;;;;;;;;;18.62;60.20;100044.16;4334695;33;19992;-87
2022/05/18 00:12:22;;;;;;;;;;;;;;;18.68;60.20;100043.78;4334636;33;20056;-87
2022/05/18 00:14:47;;;;;;;;;;;;;;;18.52;60.19;100047.44;4334614;33;20004;-86
2022/05/18 00:17:12;;;;;;;;;;;;;;;18.57;60.20;100054.13;4347076;33;20347;-88
2022/05/18 00:19:38;;;;;;;;;;;;;;;18.81;60.21;100050.97;4334757;33;20003;-87
2022/05/18 00:22:03;;;;;;;;;;;;;;;18.79;60.21;100050.22;4322206;33;20034;-87
2022/05/18 00:24:28;;;;;;;;;;;;;;;18.63;60.21;100059.03;4334954;33;20227;-87
2022/05/18 00:26:53;;;;;;;;;;;;;;;18.62;60.20;100052.06;4333760;33;20014;-87
2022/05/18 00:29:19;;;;;;;;;;;;;;;18.72;60.21;100067.37;4321877;33;20011;-87
2022/05/18 00:31:46;;;;;;;;;;;;;;;18.74;60.21;100057.56;4334474;33;19991;-86
2022/05/18 00:34:11;;;;;;;;;;;;;;;18.50;60.20;100055.44;4334756;33;20031;-88
2022/05/18 00:36:36;;;;;;;;;;;;;;;18.53;60.19;100054.41;4334505;33;19991;-88
2022/05/18 00:39:02;;;;;;;;;;;;;;;18.53;60.19;100057.03;4334461;33;19995;-87
2022/05/18 00:41:27;;;;;;;;;;;;;;;18.47;60.20;100060.91;4334479;33;20561;-88
2022/05/18 00:43:53;;;;;;;;;;;;;;;18.56;60.20;100064.75;4322284;33;20052;-88
2022/05/18 00:46:18;;;;;;;;;;;;;;;18.39;60.19;100069.22;4334515;33;20013;-86
2022/05/18 00:48:43;;;;;;;;;;;;;;;18.50;60.19;100065.13;4347921;33;19987;-87
2022/05/18 00:51:15;;;;;;;;;;;;;;;18.45;60.20;100068.00;4334345;33;19991;-87
2022/05/18 00:53:41;;;;;;;;;;;;;;;18.47;60.19;100066.16;4334381;33;19997;-87
2022/05/18 00:56:08;;;;;;;;;;;;;;;18.49;60.20;100076.62;4334304;33;20341;-87
2022/05/18 00:58:34;;;;;;;;;;;;;;;18.51;60.20;100072.09;4347820;33;20334;-86
2022/05/18 01:01:00;;;;;;;;;;;;;;;18.40;60.19;100078.00;4347811;33;19990;-85
2022/05/18 01:03:26;;;;;;;;;;;;;;;18.43;60.19;100085.72;4334207;33;19976;-86
2022/05/18 01:05:59;;;;;;;;;;;;;;;18.61;60.21;100082.00;4334184;33;19988;-86
2022/05/18 01:08:29;;;;;;;;;;;;;;;18.45;60.19;100086.47;4334267;33;20009;-86
2022/05/18 01:10:54;;;;;;;;;;;;;;;18.36;60.18;100090.50;4321804;33;19991;-86
2022/05/18 01:13:19;;;;;;;;;;;;;;;18.52;60.19;100093.09;4333606;33;23213;-87
2022/05/18 01:15:45;;;;;;;;;;;;;;;18.46;60.20;100096.09;4333925;33;20019;-87
2022/05/18 01:18:12;;;;;;;;;;;;;;;18.47;60.20;100096.94;4333892;33;19996;-88
2022/05/18 01:20:38;;;;;;;;;;;;;;;18.51;60.19;100098.47;4334511;33;20021;-86
2022/05/18 01:23:09;;;;;;;;;;;;;;;18.38;60.20;100103.59;4321969;33;20306;-87
2022/05/18 01:25:44;;;;;;;;;;;;;;;18.35;60.19;100106.41;4347510;33;20392;-87
2022/05/18 01:28:09;;;;;;;;;;;;;;;18.27;60.18;100106.00;4347539;33;20046;-87
2022/05/18 01:30:35;;;;;;;;;;;;;;;18.29;60.18;100115.53;4334218;33;20068;-86
2022/05/18 01:33:03;;;;;;;;;;;;;;;18.09;60.18;100113.19;4347712;33;20305;-86
2022/05/18 01:35:29;;;;;;;;;;;;;;;18.14;60.18;100107.66;4321701;33;19984;-87
2022/05/18 01:37:57;;;;;;;;;;;;;;;18.05;60.17;100104.63;4334825;33;20098;-88
2022/05/18 01:40:22;;;;;;;;;;;;;;;18.21;60.18;100111.63;4336247;33;20402;-87
2022/05/18 01:42:52;;;;;;;;;;;;;;;18.06;60.17;100113.38;4349344;33;20011;-87
2022/05/18 01:45:17;;;;;;;;;;;;;;;18.02;60.17;100115.34;4335700;33;19992;-87
2022/05/18 01:47:42;;;;;;;;;;;;;;;17.87;60.17;100112.69;4348682;33;20506;-86
2022/05/18 01:50:09;;;;;;;;;;;;;;;17.95;60.17;100116.59;4348895;33;20261;-87
2022/05/18 01:52:34;;;;;;;;;;;;;;;17.72;60.15;100122.28;4335557;33;19991;-85
2022/05/18 01:54:59;;;;;;;;;;;;;;;17.73;60.16;100118.72;4347789;33;19991;-88
2022/05/18 01:57:25;;;;;;;;;;;;;;;17.66;60.16;100130.50;4348911;33;19990;-88
2022/05/18 01:59:50;;;;;;;;;;;;;;;17.72;60.16;100120.50;4323137;33;19987;-88
2022/05/18 02:02:15;;;;;;;;;;;;;;;17.54;60.14;100133.81;4323139;33;20032;-88
2022/05/18 02:04:41;;;;;;;;;;;;;;;17.42;60.14;100133.53;4349007;33;19987;-87
2022/05/18 02:07:06;;;;;;;;;;;;;;;17.37;60.13;100140.84;4348915;33;19987;-88
2022/05/18 02:09:31;;;;;;;;;;;;;;;17.32;60.14;100148.16;4323520;33;20043;-88
2022/05/18 02:11:57;;;;;;;;;;;;;;;17.40;60.14;100148.56;4335592;33;19976;-88
2022/05/18 02:14:22;;;;;;;;;;;;;;;17.18;60.13;100153.28;4336370;33;20007;-88
2022/05/18 02:16:47;;;;;;;;;;;;;;;17.03;60.12;100156.69;4336830;33;20322;-88
2022/05/18 02:19:13;;;;;;;;;;;;;;;17.27;60.13;100159.81;4343358;33;20043;-88
2022/05/18 02:21:38;;;;;;;;;;;;;;;16.85;60.12;100161.16;4349642;33;19986;-88
2022/05/18 02:24:03;;;;;;;;;;;;;;;16.87;60.11;100160.13;4335558;33;20281;-87
2022/05/18 02:26:29;;;;;;;;;;;;;;;16.97;60.12;100170.16;4335289;33;19995;-88
2022/05/18 02:28:54;;;;;;;;;;;;;;;16.85;60.12;100169.88;4324267;33;19971;-88
2022/05/18 02:31:19;;;;;;;;;;;;;;;16.91;60.11;100173.97;4335913;33;20014;-87
2022/05/18 02:33:45;;;;;;;;;;;;;;;17.03;60.12;100180.38;4322482;33;24439;-85
2022/05/18 02:36:11;;;;;;;;;;;;;;;16.78;60.11;100184.25;4348906;33;20038;-86
2022/05/18 02:38:36;;;;;;;;;;;;;;;16.58;60.10;100198.38;4335387;33;20340;-86
2022/05/18 02:41:01;;;;;;;;;;;;;;;16.63;60.10;100195.53;4335250;33;20010;-87
2022/05/18 02:43:26;;;;;;;;;;;;;;;16.49;60.09;100190.94;4348213;33;20679;-86
2022/05/18 02:46:21;;;;;;;;;;;;;;;16.32;60.08;100190.03;4348812;33;19987;-86
2022/05/18 02:48:46;;;;;;;;;;;;;;;16.40;60.09;100201.06;4335761;33;19975;-85
2022/05/18 02:51:12;;;;;;;;;;;;;;;16.22;60.07;100201.00;4322857;33;19975;-87
2022/05/18 02:53:37;;;;;;;;;;;;;;;16.17;60.07;100208.25;4335439;33;20011;-87
2022/05/18 02:56:08;;;;;;;;;;;;;;;16.16;60.08;100208.34;4334773;33;22658;-87
2022/05/18 02:58:36;;;;;;;;;;;;;;;16.04;60.07;100216.78;4348945;33;20269;-87
2022/05/18 03:01:05;;;;;;;;;;;;;;;16.07;60.06;100217.47;4348612;33;19972;-88
2022/05/18 03:03:30;;;;;;;;;;;;;;;16.05;60.07;100221.09;4335000;33;20006;-87
2022/05/18 03:05:55;;;;;;;;;;;;;;;16.21;60.07;100220.31;4335060;33;20086;-87
2022/05/18 03:08:21;;;;;;;;;;;;;;;16.01;60.07;100228.28;4348296;33;19976;-87
2022/05/18 03:10:46;;;;;;;;;;;;;;;15.97;60.06;100229.34;4334376;33;20011;-88
2022/05/18 03:13:11;;;;;;;;;;;;;;;16.06;60.06;100226.28;4334973;33;20046;-88
2022/05/18 03:15:36;;;;;;;;;;;;;;;15.98;60.06;100238.09;4334705;33;20007;-87
2022/05/18 03:18:01;;;;;;;;;;;;;;;16.17;60.07;100242.41;4334514;33;21050;-87
2022/05/18 03:25:55;;;;;;;;;;;;;;;15.88;60.06;100249.03;4348527;33;20013;-88
2022/05/18 03:28:20;;;;;;;;;;;;;;;15.90;60.06;100251.56;4335015;33;19999;-88
2022/05/18 03:30:45;;;;;;;;;;;;;;;15.93;60.05;100264.56;4348393;33;20031;-86
2022/05/18 03:33:10;;;;;;;;;;;;;;;15.80;60.05;100271.28;4347903;33;23459;-86
2022/05/18 03:35:36;;;;;;;;;;;;;;;15.84;60.05;100276.31;4334698;33;20014;-85
2022/05/18 03:38:05;;;;;;;;;;;;;;;15.68;60.04;100279.72;4347088;33;19972;-86
2022/05/18 03:40:30;;;;;;;;;;;;;;;15.58;60.04;100287.09;4335276;33;20046;-84
2022/05/18 03:42:56;;;;;;;;;;;;;;;15.54;60.04;100286.38;4348309;33;19996;-87
2022/05/18 03:45:21;;;;;;;;;;;;;;;15.47;60.03;100299.84;4334671;33;20026;-86
2022/05/18 03:47:46;;;;;;;;;;;;;;;15.57;60.04;100299.34;4334839;33;20331;-86
2022/05/18 03:50:13;;;;;;;;;;;;;;;15.57;60.04;100301.13;4334670;33;19995;-86
2022/05/18 03:52:38;;;;;;;;;;;;;;;15.40;60.03;100314.16;4334938;33;19983;-86
2022/05/18 03:55:03;;;;;;;;;;;;;;;15.51;60.03;100310.12;4348487;33;20037;-87
2022/05/18 03:57:28;;;;;;;;;;;;;;;15.57;60.04;100311.63;4322505;33;19990;-87
2022/05/18 03:59:54;;;;;;;;;;;;;;;15.64;60.04;100328.87;4322177;33;20017;-86
2022/05/18 04:02:19;;;;;;;;;;;;;;;15.86;60.06;100319.13;4347075;33;19991;-86
2022/05/18 04:04:45;;;;;;;;;;;;;;;15.73;60.06;100325.81;4334750;33;19992;-88
2022/05/18 04:07:10;;;;;;;;;;;;;;;15.74;60.05;100321.44;4335313;33;20071;-88
2022/05/18 04:09:35;;;;;;;;;;;;;;;15.79;60.05;100322.91;4335540;33;19980;-87
2022/05/18 04:12:01;;;;;;;;;;;;;;;15.95;60.06;100330.97;4341146;33;19995;-88
2022/05/18 04:14:26;;;;;;;;;;;;;;;15.91;60.05;100330.28;4336930;33;20294;-86
2022/05/18 04:16:51;;;;;;;;;;;;;;;16.27;60.08;100334.75;4348254;33;19991;-86
2022/05/18 04:19:17;;;;;;;;;;;;;;;16.31;60.07;100343.34;4334684;33;19976;-87
2022/05/18 04:21:42;;;;;;;;;;;;;;;16.27;60.08;100346.13;4334604;33;20047;-87
2022/05/18 04:24:07;;;;;;;;;;;;;;;16.44;60.08;100347.12;4334343;33;19996;-88
2022/05/18 04:26:32;;;;;;;;;;;;;;;16.51;60.09;100349.37;4348155;33;19980;-86
2022/05/18 04:28:58;;;;;;;;;;;;;;;16.59;60.09;100356.94;4333974;33;21313;-87
2022/05/18 04:31:23;;;;;;;;;;;;;;;16.71;60.10;100358.13;4334392;33;20027;-87
2022/05/18 04:33:48;;;;;;;;;;;;;;;16.90;60.11;100364.22;4322162;33;20310;-86
2022/05/18 04:36:13;;;;;;;;;;;;;;;16.91;60.11;100368.56;4322224;33;20011;-86
2022/05/18 04:38:39;;;;;;;;;;;;;;;17.08;60.12;100370.38;4334400;33;19994;-87
2022/05/18 04:41:04;;;;;;;;;;;;;;;17.15;60.12;100377.03;4322088;33;20002;-87
2022/05/18 04:43:32;;;;;;;;;;;;;;;17.16;60.13;100376.97;4347675;33;19979;-87
2022/05/18 04:45:57;;;;;;;;;;;;;;;17.17;60.13;100377.81;4348034;33;19975;-87
2022/05/18 04:48:24;;;;;;;;;;;;;;;17.26;60.13;100379.97;4334636;33;20006;-90
2022/05/18 04:50:49;;;;;;;;;;;;;;;17.28;60.13;100380.78;4322276;33;20365;-92
2022/05/18 04:53:15;;;;;;;;;;;;;;;17.38;60.13;100386.44;4334644;33;19983;-88
2022/05/18 04:55:40;;;;;;;;;;;;;;;17.40;60.14;100387.19;4347919;33;19972;-88
2022/05/18 04:58:06;;;;;;;;;;;;;;;17.53;60.14;100390.09;4334295;33;19984;-88
2022/05/18 05:00:31;;;;;;;;;;;;;;;17.61;60.14;100393.16;4334113;33;20058;-88
2022/05/18 05:02:57;;;;;;;;;;;;;;;17.62;60.15;100398.34;4334455;33;20107;-88
2022/05/18 05:05:23;;;;;;;;;;;;;;;17.72;60.15;100404.88;4334382;33;19994;-88
2022/05/18 05:07:48;;;;;;;;;;;;;;;17.72;60.15;100407.50;4334490;33;19987;-88
2022/05/18 05:10:14;;;;;;;;;;;;;;;17.67;60.15;100416.53;4334343;33;19995;-88
2022/05/18 05:12:39;;;;;;;;;;;;;;;17.74;60.15;100417.97;4347425;33;19983;-88
2022/05/18 05:15:04;;;;;;;;;;;;;;;17.64;60.15;100422.81;4334243;33;20033;-88
2022/05/18 05:17:30;;;;;;;;;;;;;;;17.67;60.15;100422.69;4348002;33;20272;-88
2022/05/18 05:19:55;;;;;;;;;;;;;;;17.87;60.16;100426.09;4322224;33;20357;-88
2022/05/18 05:22:20;;;;;;;;;;;;;;;17.92;60.16;100429.34;4349892;33;20002;-88
2022/05/18 05:24:45;;;;;;;;;;;;;;;18.10;60.18;100431.03;4334137;33;20014;-88
2022/05/18 05:27:11;;;;;;;;;;;;;;;18.31;60.19;100439.59;4333929;33;20022;-87
2022/05/18 05:29:36;;;;;;;;;;;;;;;18.31;60.19;100447.50;4347419;33;19995;-86
2022/05/18 05:32:07;;;;;;;;;;;;;;;18.58;60.20;100443.38;4347374;33;19995;-86
2022/05/18 05:34:33;;;;;;;;;;;;;;;18.58;60.20;100453.09;4334058;33;19972;-86
2022/05/18 05:36:58;;;;;;;;;;;;;;;18.42;60.19;100453.03;4334020;33;20009;-88
2022/05/18 05:39:23;;;;;;;;;;;;;;;18.49;60.20;100456.22;4321578;33;19995;-86
2022/05/18 05:41:49;;;;;;;;;;;;;;;18.68;60.20;100470.13;4347394;33;19991;-86
2022/05/18 05:44:14;;;;;;;;;;;;;;;18.55;60.20;100475.19;4347260;33;20001;-86
2022/05/18 05:46:39;;;;;;;;;;;;;;;18.42;60.19;100484.69;4347369;33;20015;-87
2022/05/18 05:49:04;;;;;;;;;;;;;;;18.38;60.19;100489.25;4347058;33;19995;-87
2022/05/18 05:51:29;;;;;;;;;;;;;;;18.29;60.18;100491.53;4347197;33;19984;-86
2022/05/18 05:53:55;;;;;;;;;;;;;;;18.33;60.18;100493.94;4347016;33;19983;-86
2022/05/18 05:56:20;;;;;;;;;;;;;;;18.32;60.19;100494.00;4333840;33;19995;-87
2022/05/18 05:58:47;;;;;;;;;;;;;;;18.43;60.19;100510.09;4333813;33;20022;-86
2022/05/18 06:01:13;;;;;;;;;;;;;;;18.52;60.19;100512.28;4347424;33;20002;-86
2022/05/18 06:03:38;;;;;;;;;;;;;;;18.58;60.20;100514.59;4322923;33;20031;-87
2022/05/18 06:06:04;;;;;;;;;;;;;;;18.71;60.21;100522.75;4337530;33;20021;-86
2022/05/18 06:08:30;;;;;;;;;;;;;;;18.92;60.22;100521.56;4333735;33;20007;-87
2022/05/18 06:10:55;;;;;;;;;;;;;;;18.86;60.22;100523.69;4333579;33;20010;-88
2022/05/18 06:13:20;;;;;;;;;;;;;;;18.94;60.22;100537.34;4333781;33;20020;-88
2022/05/18 06:15:47;;;;;;;;;;;;;;;18.91;60.21;100527.78;4346818;33;20386;-87
2022/05/18 06:18:12;;;;;;;;;;;;;;;18.79;60.21;100546.06;4347226;33;20034;-86
2022/05/18 06:20:38;;;;;;;;;;;;;;;18.74;60.21;100545.47;4346806;33;20288;-87
2022/05/18 06:23:06;;;;;;;;;;;;;;;18.74;60.21;100551.59;4347297;33;20010;-87
2022/05/18 06:25:32;;;;;;;;;;;;;;;18.72;60.21;100552.59;4335043;33;19971;-87
2022/05/18 06:27:57;;;;;;;;;;;;;;;18.78;60.21;100558.41;4335754;33;19988;-87
2022/05/18 06:30:22;;;;;;;;;;;;;;;18.81;60.21;100560.88;4349103;33;19980;-86
2022/05/18 06:32:47;;;;;;;;;;;;;;;18.93;60.22;100559.37;4335743;33;19995;-87
2022/05/18 06:35:13;;;;;;;;;;;;;;;19.07;60.22;100554.19;4349188;33;20282;-86
2022/05/18 06:37:38;;;;;;;;;;;;;;;18.99;60.22;100562.53;4323347;33;19999;-87
2022/05/18 06:40:04;;;;;;;;;;;;;;;19.14;60.23;100565.25;4323379;33;20066;-87
2022/05/18 06:42:29;;;;;;;;;;;;;;;19.20;60.24;100579.00;4349176;33;19990;-88
2022/05/18 06:44:54;;;;;;;;;;;;;;;19.33;60.25;100577.38;4348717;33;23835;-87
2022/05/18 06:47:20;;;;;;;;;;;;;;;19.62;60.25;100583.69;4349212;33;20010;-88
2022/05/18 06:49:47;;;;;;;;;;;;;;;19.80;60.27;100586.25;4335521;33;20000;-86
2022/05/18 06:52:12;;;;;;;;;;;;;;;19.80;60.27;100595.03;4349246;33;20480;-87
2022/05/18 06:54:37;;;;;;;;;;;;;;;20.09;60.29;100588.06;4349296;33;19975;-87
2022/05/18 06:57:03;;;;;;;;;;;;;;;20.13;60.28;100601.97;4335695;33;20046;-87
2022/05/18 06:59:28;;;;;;;;;;;;;;;19.98;60.28;100605.50;4349131;33;20372;-87
2022/05/18 07:01:53;;;;;;;;;;;;;;;19.95;60.28;100598.59;4335319;33;20024;-88
2022/05/18 07:04:18;;;;;;;;;;;;;;;20.14;60.28;100603.69;4323053;33;20313;-87
2022/05/18 07:06:44;;;;;;;;;;;;;;;20.34;60.30;100613.06;4335360;33;20079;-86
2022/05/18 07:09:10;;;;;;;;;;;;;;;20.52;60.30;100618.16;4335548;33;20011;-87
2022/05/18 07:11:38;;;;;;;;;;;;;;;20.61;60.31;100623.87;4335357;33;20025;-87
2022/05/18 07:14:05;;;;;;;;;;;;;;;20.61;60.30;100626.50;4335492;33;20092;-86
2022/05/18 07:16:30;;;;;;;;;;;;;;;20.79;60.32;100634.16;4335434;33;20329;-87
2022/05/18 07:18:55;;;;;;;;;;;;;;;20.64;60.31;100644.84;4348888;33;20084;-87
2022/05/18 07:21:21;;;;;;;;;;;;;;;20.79;60.33;100639.47;4335290;33;19983;-87
2022/05/18 07:23:46;;;;;;;;;;;;;;;20.88;60.33;100635.44;4348824;33;20241;-88
2022/05/18 07:26:12;;;;;;;;;;;;;;;21.14;60.34;100639.97;4335265;33;20006;-87
2022/05/18 07:28:38;;;;;;;;;;;;;;;21.28;60.34;100638.28;4335516;33;19992;-87
2022/05/18 07:31:05;;;;;;;;;;;;;;;21.37;60.35;100640.37;4335624;33;19997;-87
2022/05/18 07:33:30;;;;;;;;;;;;;;;21.42;60.36;100644.44;4348879;33;20026;-87
2022/05/18 07:35:55;;;;;;;;;;;;;;;21.49;60.36;100647.53;4348472;33;20000;-87
2022/05/18 07:38:22;;;;;;;;;;;;;;;21.43;60.36;100648.78;4335292;33;20011;-88
2022/05/18 07:40:48;;;;;;;;;;;;;;;21.59;60.37;100650.47;4335294;33;19994;-86
2022/05/18 07:43:13;;;;;;;;;;;;;;;21.43;60.35;100648.78;4348921;33;20061;-87
2022/05/18 07:45:38;;;;;;;;;;;;;;;21.73;60.37;100653.09;4334770;33;21593;-87
2022/05/18 07:48:03;;;;;;;;;;;;;;;21.54;60.36;100658.72;4348324;33;21311;-87
2022/05/18 07:50:29;;;;;;;;;;;;;;;21.23;60.34;100664.19;4335084;33;20408;-87
2022/05/18 07:52:58;;;;;;;;;;;;;;;20.94;60.33;100661.50;4348716;33;20514;-87
2022/05/18 07:55:24;;;;;;;;;;;;;;;21.01;60.34;100662.84;4335238;33;20329;-87
2022/05/18 07:57:49;;;;;;;;;;;;;;;21.18;60.35;100666.25;4324469;33;20007;-87
2022/05/18 08:00:15;;;;;;;;;;;;;;;21.21;60.35;100668.72;4349621;33;19979;-87
2022/05/18 08:02:40;;;;;;;;;;;;;;;21.60;60.36;100671.56;4348833;33;19979;-86
2022/05/18 08:05:06;;;;;;;;;;;;;;;21.60;60.36;100671.56;4348291;33;20011;-87
2022/05/18 08:07:31;;;;;;;;;;;;;;;21.71;60.38;100679.69;4348760;33;19983;-86
2022/05/18 08:15:24;;;;;;;;;;;;;;;21.78;60.37;100684.63;4348361;33;20272;-86
2022/05/18 08:17:50;;;;;;;;;;;;;;;21.93;60.38;100691.56;4334762;33;19999;-87
2022/05/18 08:20:16;;;;;;;;;;;;;;;22.10;60.40;100694.03;4348056;33;20246;-86
2022/05/18 08:22:41;;;;;;;;;;;;;;;22.30;60.40;100700.69;4334799;33;19996;-86
2022/05/18 08:25:06;;;;;;;;;;;;;;;22.45;60.41;100704.97;4348049;33;19968;-87
2022/05/18 08:27:32;;;;;;;;;;;;;;;22.24;60.39;100709.91;4348175;33;20002;-86
2022/05/18 08:30:05;;;;;;;;;;;;;;;21.99;60.39;100702.63;4334515;33;19975;-87
2022/05/18 08:32:30;;;;;;;;;;;;;;;21.68;60.37;100711.69;4334710;33;19996;-87
2022/05/18 08:34:55;;;;;;;;;;;;;;;22.08;60.39;100710.97;4334697;33;20059;-86
2022/05/18 08:37:22;;;;;;;;;;;;;;;22.27;60.41;100709.69;4334632;33;20010;-87
2022/05/18 08:39:48;;;;;;;;;;;;;;;22.32;60.40;100714.69;4334786;33;19990;-86
2022/05/18 08:42:14;;;;;;;;;;;;;;;21.71;60.38;100714.13;4322346;33;19999;-86
2022/05/18 08:44:40;;;;;;;;;;;;;;;21.56;60.37;100720.41;4348151;33;20115;-87
2022/05/18 08:47:09;;;;;;;;;;;;;;;21.57;60.38;100723.91;4333821;33;20348;-87
2022/05/18 08:49:55;;;;;;;;;;;;;;;21.73;60.38;100716.69;4348188;33;20046;-87
2022/05/18 08:52:29;;;;;;;;;;;;;;;21.85;60.38;100720.38;4348123;33;19972;-86
2022/05/18 08:55:10;;;;;;;;;;;;;;;21.98;60.39;100729.22;4334498;33;20051;-86
2022/05/18 08:57:42;;;;;;;;;;;;;;;21.69;60.37;100731.06;4334546;33;19992;-87
2022/05/18 09:00:10;;;;;;;;;;;;;;;21.68;60.37;100735.53;4334644;33;20007;-86
2022/05/18 09:02:35;;;;;;;;;;;;;;;21.48;60.37;100732.41;4334576;33;20552;-86
2022/05/18 09:05:04;;;;;;;;;;;;;;;21.66;60.37;100731.28;4347952;33;20235;-87
2022/05/18 09:07:33;;;;;;;;;;;;;;;21.77;60.38;100731.47;4334470;33;20021;-88
2022/05/18 09:10:14;;;;;;;;;;;;;;;21.93;60.38;100750.75;4334633;33;20325;-87
2022/05/18 09:12:46;;;;;;;;;;;;;;;21.46;60.36;100740.44;4335991;33;19971;-87
2022/05/18 09:15:13;;;;;;;;;;;;;;;21.31;60.35;100741.41;4334374;33;20380;-88
2022/05/18 09:17:42;;;;;;;;;;;;;;;21.02;60.34;100751.03;4334335;33;20328;-87
2022/05/18 09:20:29;;;;;;;;;;;;;;;20.95;60.35;100752.34;4347762;33;19990;-85
2022/05/18 09:23:10;;;;;;;;;;;;;;;20.86;60.34;100752.91;4334268;33;20325;-86
2022/05/18 09:25:44;;;;;;;;;;;;;;;21.07;60.34;100741.91;4347758;33;19989;-86
2022/05/18 09:28:28;;;;;;;;;;;;;;;21.31;60.37;100746.69;4347905;33;19984;-86
2022/05/18 09:31:16;;;;;;;;;;;;;;;21.43;60.37;100745.94;4347956;33;19986;-87
2022/05/18 09:33:57;;;;;;;;;;;;;;;21.19;60.36;100747.41;4334457;33;20046;-86
2022/05/18 09:36:35;;;;;;;;;;;;;;;21.15;60.36;100760.81;4347772;33;20007;-87
2022/05/18 09:39:08;;;;;;;;;;;;;;;21.21;60.35;100761.38;4334233;33;20014;-87
2022/05/18 09:41:54;;;;;;;;;;;;;;;21.18;60.35;100746.53;4334161;33;19980;-86
2022/05/18 09:44:25;;;;;;;;;;;;;;;21.27;60.36;100756.59;4346830;33;19963;-86
2022/05/18 09:46:50;;;;;;;;;;;;;;;21.41;60.37;100763.72;4347914;33;19984;-87
2022/05/18 09:49:25;;;;;;;;;;;;;;;21.58;60.38;100766.19;4334228;33;20281;-87
2022/05/18 09:51:50;;;;;;;;;;;;;;;21.45;60.36;100754.63;4335927;33;19976;-87
2022/05/18 09:54:16;;;;;;;;;;;;;;;21.69;60.38;100760.22;4333362;33;22877;-87
2022/05/18 09:56:42;;;;;;;;;;;;;;;21.65;60.38;100759.56;4333731;33;20251;-86
2022/05/18 09:59:08;;;;;;;;;;;;;;;21.71;60.39;100753.88;4321677;33;20400;-87
2022/05/18 10:09:50;;;;;;;;;;;;;;;22.34;60.42;100756.09;4337624;33;20010;-86
2022/05/18 10:12:28;;;;;;;;;;;;;;;22.42;60.42;100757.38;4349056;33;19979;-86
2022/05/18 10:14:58;;;;;;;;;;;;;;;22.59;60.42;100757.97;4335643;33;20007;-86
2022/05/18 10:17:28;;;;;;;;;;;;;;;22.78;60.43;100754.12;4335695;33;20337;-87
2022/05/18 10:19:58;;;;;;;;;;;;;;;22.93;60.44;100769.88;4335521;33;19995;-86
2022/05/18 10:22:24;;;;;;;;;;;;;;;22.88;60.45;100760.53;4335548;33;19971;-85
2022/05/18 10:24:55;;;;;;;;;;;;;;;22.66;60.44;100756.59;4335510;33;19976;-86
2022/05/18 10:27:20;;;;;;;;;;;;;;;22.88;60.45;100747.25;4335388;33;20026;-87
2022/05/18 10:30:01;;;;;;;;;;;;;;;23.21;60.46;100754.75;4348972;33;20004;-86
2022/05/18 10:32:31;;;;;;;;;;;;;;;23.48;60.47;100750.19;4335384;33;20034;-86
2022/05/18 10:34:56;;;;;;;;;;;;;;;22.99;60.45;100757.16;4336083;33;19998;-87
2022/05/18 10:37:25;;;;;;;;;;;;;;;23.10;60.46;100751.97;4335408;33;19992;-86
2022/05/18 10:39:50;;;;;;;;;;;;;;;23.11;60.46;100735.91;4349020;33;19987;-87
2022/05/18 10:42:20;;;;;;;;;;;;;;;23.20;60.46;100732.66;4349051;33;20031;-86
2022/05/18 10:44:45;;;;;;;;;;;;;;;23.13;60.46;100738.47;4335348;33;20035;-86
2022/05/18 10:47:34;;;;;;;;;;;;;;;23.00;60.45;100741.13;4335304;33;19984;-86
2022/05/18 10:50:29;;;;;;;;;;;;;;;22.97;60.45;100744.00;4340694;33;20003;-86
2022/05/18 10:52:56;;;;;;;;;;;;;;;23.17;60.46;100737.28;4328323;33;19976;-87
2022/05/18 10:55:22;;;;;;;;;;;;;;;23.32;60.46;100736.25;4335679;33;20339;-86
2022/05/18 10:57:54;;;;;;;;;;;;;;;23.40;60.46;100739.22;4349045;33;19991;-87
2022/05/18 11:00:22;;;;;;;;;;;;;;;23.35;60.47;100736.03;4349114;33;20022;-86
2022/05/18 11:02:56;;;;;;;;;;;;;;;23.56;60.48;100736.38;4335972;33;20000;-86
2022/05/18 11:05:22;;;;;;;;;;;;;;;23.63;60.48;100731.47;4335699;33;20012;-87
2022/05/18 11:07:47;;;;;;;;;;;;;;;23.70;60.49;100728.28;4335340;33;20035;-86
2022/05/18 11:10:12;;;;;;;;;;;;;;;23.95;60.50;100734.50;4310545;33;782851;-86
2022/05/18 11:12:43;;;;;;;;;;;;;;;23.99;60.50;100739.50;4348668;33;19988;-86
2022/05/18 11:15:09;;;;;;;;;;;;;;;24.04;60.51;100732.03;4335360;33;20072;-88
2022/05/18 11:17:54;;;;;;;;;;;;;;;23.89;60.51;100738.44;4335300;33;19999;-85
2022/05/18 11:20:19;;;;;;;;;;;;;;;23.65;60.49;100733.06;4334977;33;20003;-87
2022/05/18 11:23:14;;;;;;;;;;;;;;;23.67;60.48;100727.66;4335100;33;20096;-87
2022/05/18 11:25:51;;;;;;;;;;;;;;;23.70;60.49;100728.28;4283212;33;20008;-87
2022/05/18 11:28:23;;;;;;;;;;;;;;;23.62;60.48;100733.28;4348742;33;19995;-86
2022/05/18 11:31:09;;;;;;;;;;;;;;;23.46;60.47;100727.31;4335043;33;20010;-86
2022/05/18 11:33:35;;;;;;;;;;;;;;;23.44;60.48;100729.25;4348351;33;20038;-86
2022/05/18 11:36:13;;;;;;;;;;;;;;;23.69;60.49;100723.09;4323143;33;20019;-86
2022/05/18 11:38:53;;;;;;;;;;;;;;;23.71;60.48;100719.34;4348561;33;20007;-87
2022/05/18 11:41:37;;;;;;;;;;;;;;;23.81;60.50;100714.22;4348610;33;19988;-86
2022/05/18 11:44:04;;;;;;;;;;;;;;;24.14;60.52;100714.44;4349523;33;20006;-87
2022/05/18 11:46:33;;;;;;;;;;;;;;;24.38;60.53;100714.47;4335420;33;20002;-87
2022/05/18 11:49:09;;;;;;;;;;;;;;;24.39;60.53;100712.66;4348501;33;20329;-87
2022/05/18 11:51:45;;;;;;;;;;;;;;;24.63;60.53;100715.31;4348420;33;20015;-87
2022/05/18 11:54:23;;;;;;;;;;;;;;;24.92;60.56;100705.09;4334870;33;20403;-87
2022/05/18 11:56:51;;;;;;;;;;;;;;;25.25;60.57;100713.16;4335015;33;19998;-87
2022/05/18 12:02:01;;;;;;;;;;;;;;;25.30;60.58;100713.66;4348552;33;19987;-86
2022/05/18 12:04:38;;;;;;;;;;;;;;;25.17;60.57;100712.09;4335021;33;20447;-86
2022/05/18 12:07:14;;;;;;;;;;;;;;;25.14;60.57;100712.31;4322699;33;20331;-86
2022/05/18 12:09:58;;;;;;;;;;;;;;;25.06;60.57;100713.75;4334928;33;19988;-87
2022/05/18 12:12:30;;;;;;;;;;;;;;;25.11;60.57;100716.06;4348570;33;20727;-87
2022/05/18 12:14:55;;;;;;;;;;;;;;;25.19;60.56;100711.00;4348366;33;19979;-86
2022/05/18 12:17:20;;;;;;;;;;;;;;;25.25;60.57;100712.31;4334810;33;20344;-87
2022/05/18 12:19:48;;;;;;;;;;;;;;;25.43;60.58;100718.03;4348322;33;19983;-87
2022/05/18 12:22:14;;;;;;;;;;;;;;;25.57;60.59;100715.16;4333836;33;20009;-87
2022/05/18 12:24:40;;;;;;;;;;;;;;;25.54;60.59;100710.03;4334655;33;20021;-86
2022/05/18 12:27:06;;;;;;;;;;;;;;;25.39;60.58;100712.09;4334772;33;20004;-87
2022/05/18 12:29:32;;;;;;;;;;;;;;;25.38;60.58;100703.25;4334561;33;20018;-87
2022/05/18 12:31:57;;;;;;;;;;;;;;;25.46;60.59;100709.78;4334792;33;20057;-87
2022/05/18 12:34:24;;;;;;;;;;;;;;;25.55;60.59;100723.25;4334701;33;20455;-86
2022/05/18 12:36:54;;;;;;;;;;;;;;;24.91;60.56;100722.06;4348174;33;20023;-87
2022/05/18 12:39:20;;;;;;;;;;;;;;;24.88;60.55;100716.97;4334637;33;20007;-87
2022/05/18 12:41:46;;;;;;;;;;;;;;;24.94;60.55;100717.34;4334751;33;19995;-87
2022/05/18 12:44:39;;;;;;;;;;;;;;;25.30;60.59;100713.66;4322326;33;20002;-86
2022/05/18 12:47:18;;;;;;;;;;;;;;;25.20;60.57;100717.16;4346225;33;20373;-86
2022/05/18 12:49:44;;;;;;;;;;;;;;;24.80;60.55;100718.37;4334720;33;20055;-86
2022/05/18 12:52:12;;;;;;;;;;;;;;;24.83;60.56;100719.94;4334803;33;19987;-87
2022/05/18 12:54:41;;;;;;;;;;;;;;;24.78;60.56;100717.63;4334691;33;20025;-87
2022/05/18 12:57:07;;;;;;;;;;;;;;;25.05;60.57;100721.84;4334859;33;20347;-89
2022/05/18 12:59:50;;;;;;;;;;;;;;;25.13;60.58;100713.28;4347987;33;20007;-89